createdAt,value
2018-09-25T00:00:29.161Z,9.00
2018-09-25T00:03:02.791Z,9.00
2018-09-25T00:05:36.665Z,9.20
2018-09-25T00:08:10.482Z,9.20
2018-09-25T00:10:44.183Z,9.30
2018-09-25T00:13:17.950Z,9.20
2018-09-25T00:15:51.626Z,9.20
2018-09-25T00:18:25.381Z,9.10
2018-09-25T00:20:59.250Z,8.90
2018-09-25T00:23:32.842Z,8.70
2018-09-25T00:26:06.593Z,8.60
2018-09-25T00:28:40.367Z,8.50
2018-09-25T00:31:14.516Z,8.70
2018-09-25T00:33:48.345Z,8.80
2018-09-25T00:36:22.351Z,8.80
2018-09-25T00:38:56.010Z,8.80
2018-09-25T00:41:30.033Z,8.80
2018-09-25T00:44:04.129Z,8.60
2018-09-25T00:46:37.825Z,8.50
2018-09-25T00:49:11.805Z,8.60
2018-09-25T00:51:45.567Z,8.70
2018-09-25T00:54:19.296Z,8.60
2018-09-25T00:56:53.151Z,8.60
2018-09-25T00:59:26.841Z,8.70
2018-09-25T01:02:00.529Z,8.60
2018-09-25T01:04:34.286Z,8.40
2018-09-25T01:07:08.144Z,8.40
2018-09-25T01:09:42.392Z,8.40
2018-09-25T01:12:16.077Z,8.30
2018-09-25T01:14:49.849Z,8.40
2018-09-25T01:17:23.698Z,8.30
2018-09-25T01:19:57.361Z,8.20
2018-09-25T01:22:31.046Z,8.10
2018-09-25T01:25:04.896Z,8.20
2018-09-25T01:27:38.602Z,8.30
2018-09-25T01:30:12.441Z,8.30
2018-09-25T01:32:46.239Z,8.30
2018-09-25T01:35:20.006Z,8.30
2018-09-25T01:37:54.171Z,8.20
2018-09-25T01:40:28.017Z,8.20
2018-09-25T01:43:01.977Z,8.20
2018-09-25T01:45:35.818Z,8.10
2018-09-25T01:48:09.676Z,8.20
2018-09-25T01:50:43.342Z,8.30
2018-09-25T01:53:17.058Z,8.30
2018-09-25T01:55:51.010Z,8.20
2018-09-25T01:58:24.854Z,8.20
2018-09-25T02:00:58.598Z,8.30
2018-09-25T02:03:32.350Z,8.30
2018-09-25T02:06:06.134Z,8.20
2018-09-25T02:08:39.854Z,8.00
2018-09-25T02:11:13.625Z,8.00
2018-09-25T02:13:47.151Z,8.10
2018-09-25T02:16:20.993Z,8.00
2018-09-25T02:18:54.918Z,8.00
2018-09-25T02:21:28.705Z,7.80
2018-09-25T02:24:02.490Z,7.80
2018-09-25T02:26:36.299Z,7.80
2018-09-25T02:29:10.103Z,7.90
2018-09-25T02:31:43.721Z,7.80
2018-09-25T02:34:17.672Z,7.60
2018-09-25T02:36:51.286Z,7.50
2018-09-25T02:39:25.090Z,7.40
2018-09-25T02:41:58.894Z,7.40
2018-09-25T02:44:32.641Z,7.40
2018-09-25T02:47:06.310Z,7.50
2018-09-25T02:49:40.113Z,7.60
2018-09-25T02:52:13.813Z,7.50
2018-09-25T02:54:47.618Z,7.40
2018-09-25T02:57:21.433Z,7.30
2018-09-25T02:59:55.281Z,7.40
2018-09-25T03:02:28.947Z,7.30
2018-09-25T03:05:02.600Z,7.40
2018-09-25T03:07:36.424Z,7.40
2018-09-25T03:10:10.438Z,7.30
2018-09-25T03:12:44.110Z,7.30
2018-09-25T03:15:17.797Z,7.20
2018-09-25T03:17:51.557Z,7.20
2018-09-25T03:20:25.503Z,7.20
2018-09-25T03:22:59.289Z,7.20
2018-09-25T03:25:33.092Z,7.20
2018-09-25T03:28:06.779Z,7.30
2018-09-25T03:30:40.618Z,7.20
2018-09-25T03:33:14.277Z,7.20
2018-09-25T03:35:48.065Z,7.10
2018-09-25T03:38:21.926Z,7.00
2018-09-25T03:40:55.746Z,6.90
2018-09-25T03:43:29.382Z,6.90
2018-09-25T03:46:03.269Z,6.80
2018-09-25T03:48:37.001Z,6.70
2018-09-25T03:51:10.735Z,6.80
2018-09-25T03:53:44.497Z,6.90
2018-09-25T03:56:18.310Z,6.90
2018-09-25T03:58:51.993Z,6.90
2018-09-25T04:01:25.819Z,6.80
2018-09-25T04:03:59.534Z,6.70
2018-09-25T04:06:33.374Z,6.70
2018-09-25T04:09:07.254Z,6.90
2018-09-25T04:11:41.069Z,7.00
2018-09-25T04:14:14.695Z,6.90
2018-09-25T04:16:48.491Z,6.70
2018-09-25T04:19:22.150Z,6.60
2018-09-25T04:21:56.000Z,6.60
2018-09-25T04:24:29.689Z,6.60
2018-09-25T04:27:03.525Z,6.60
2018-09-25T04:29:37.378Z,6.60
2018-09-25T04:32:11.029Z,6.50
2018-09-25T04:34:44.728Z,6.50
2018-09-25T04:37:18.415Z,6.60
2018-09-25T04:39:52.111Z,6.70
2018-09-25T04:42:25.957Z,6.70
2018-09-25T04:45:00.763Z,6.60
2018-09-25T04:47:34.434Z,6.60
2018-09-25T04:50:08.110Z,6.50
2018-09-25T04:52:41.969Z,6.50
2018-09-25T04:55:15.669Z,6.50
2018-09-25T04:57:49.510Z,6.50
2018-09-25T05:00:23.523Z,6.50
2018-09-25T05:02:57.349Z,6.50
2018-09-25T05:05:31.429Z,6.50
2018-09-25T05:08:05.074Z,6.50
2018-09-25T05:10:38.956Z,6.40
2018-09-25T05:13:12.665Z,6.40
2018-09-25T05:15:46.341Z,6.50
2018-09-25T05:18:20.162Z,6.50
2018-09-25T05:20:53.850Z,6.40
2018-09-25T05:23:27.642Z,6.50
2018-09-25T05:26:01.233Z,6.50
2018-09-25T05:28:35.043Z,6.50
2018-09-25T05:31:08.860Z,6.60
2018-09-25T05:33:42.757Z,6.50
2018-09-25T05:36:16.549Z,6.50
2018-09-25T05:38:50.312Z,6.50
2018-09-25T05:41:23.983Z,6.50
2018-09-25T05:43:57.723Z,6.60
2018-09-25T05:46:32.752Z,6.60
2018-09-25T05:49:06.601Z,6.60
2018-09-25T05:51:40.347Z,6.70
2018-09-25T05:54:14.250Z,6.80
2018-09-25T05:56:47.926Z,6.80
2018-09-25T05:59:22.019Z,7.00
2018-09-25T06:01:55.637Z,7.20
2018-09-25T06:04:29.282Z,7.30
2018-09-25T06:07:02.913Z,7.30
2018-09-25T06:09:36.748Z,7.50
2018-09-25T06:12:10.510Z,7.90
2018-09-25T06:14:44.475Z,8.20
2018-09-25T06:17:18.089Z,8.40
2018-09-25T06:19:51.813Z,8.50
2018-09-25T06:22:25.608Z,8.50
2018-09-25T06:24:59.237Z,8.20
2018-09-25T06:27:33.272Z,8.70
2018-09-25T06:30:07.170Z,9.20
2018-09-25T06:32:40.810Z,9.60
2018-09-25T06:35:14.685Z,9.30
2018-09-25T06:37:48.423Z,9.00
2018-09-25T06:40:22.314Z,8.30
2018-09-25T06:42:56.055Z,8.00
2018-09-25T06:45:29.765Z,7.80
2018-09-25T06:48:03.578Z,8.10
2018-09-25T06:50:37.353Z,8.40
2018-09-25T06:53:10.990Z,8.60
2018-09-25T06:55:44.713Z,8.80
2018-09-25T06:58:18.333Z,9.30
2018-09-25T07:00:52.211Z,10.40
2018-09-25T07:03:25.753Z,10.80
2018-09-25T07:05:59.646Z,10.80
2018-09-25T07:08:33.470Z,10.80
2018-09-25T07:11:07.185Z,10.10
2018-09-25T07:13:40.832Z,10.00
2018-09-25T07:16:14.796Z,9.80
2018-09-25T07:18:48.407Z,9.00
2018-09-25T07:21:22.212Z,8.60
2018-09-25T07:23:56.337Z,8.50
2018-09-25T07:26:30.695Z,9.10
2018-09-25T07:29:04.425Z,9.30
2018-09-25T07:31:38.334Z,9.20
2018-09-25T07:34:12.121Z,9.00
2018-09-25T07:36:45.870Z,9.20
2018-09-25T07:39:19.837Z,9.40
2018-09-25T07:41:53.582Z,9.30
2018-09-25T07:44:27.349Z,9.60
2018-09-25T07:47:01.150Z,9.70
2018-09-25T07:49:34.840Z,9.70
2018-09-25T07:52:08.658Z,10.00
2018-09-25T07:54:42.369Z,10.00
2018-09-25T07:57:16.382Z,10.60
2018-09-25T07:59:50.301Z,10.30
2018-09-25T08:02:24.046Z,10.00
2018-09-25T08:04:57.822Z,10.10
2018-09-25T08:07:31.561Z,10.30
2018-09-25T08:10:05.362Z,10.30
2018-09-25T08:12:39.189Z,11.10
2018-09-25T08:15:12.778Z,11.50
2018-09-25T08:17:46.457Z,11.50
2018-09-25T08:20:20.259Z,11.60
2018-09-25T08:22:54.327Z,11.90
2018-09-25T08:25:27.836Z,12.10
2018-09-25T08:28:01.461Z,12.00
2018-09-25T08:30:35.214Z,12.00
2018-09-25T08:33:08.972Z,11.60
2018-09-25T08:35:43.104Z,12.40
2018-09-25T08:38:16.926Z,12.60
2018-09-25T08:40:50.511Z,12.90
2018-09-25T08:43:24.461Z,12.70
2018-09-25T08:45:58.315Z,13.00
2018-09-25T08:48:31.992Z,13.20
2018-09-25T08:51:05.686Z,13.20
2018-09-25T08:53:39.425Z,12.60
2018-09-25T08:56:13.402Z,12.80
2018-09-25T08:58:47.256Z,13.20
2018-09-25T09:01:21.146Z,13.20
2018-09-25T09:03:54.844Z,13.30
2018-09-25T09:06:28.676Z,13.70
2018-09-25T09:09:02.390Z,14.10
2018-09-25T09:11:36.094Z,14.20
2018-09-25T09:14:09.891Z,14.10
2018-09-25T09:16:43.411Z,13.80
2018-09-25T09:19:17.230Z,14.50
2018-09-25T09:21:50.881Z,14.90
2018-09-25T09:24:24.543Z,14.30
2018-09-25T09:26:58.228Z,14.10
2018-09-25T09:29:32.130Z,13.90
2018-09-25T09:32:05.976Z,13.40
2018-09-25T09:34:39.977Z,12.80
2018-09-25T09:37:13.597Z,12.60
2018-09-25T09:39:47.222Z,11.90
2018-09-25T09:42:21.040Z,12.10
2018-09-25T09:44:54.881Z,12.10
2018-09-25T09:47:28.932Z,12.00
2018-09-25T09:50:02.676Z,11.80
2018-09-25T09:52:36.570Z,12.10
2018-09-25T09:55:10.358Z,12.70
2018-09-25T09:57:44.267Z,13.40
2018-09-25T10:00:17.973Z,14.10
2018-09-25T10:02:51.893Z,13.70
2018-09-25T10:05:25.898Z,13.30
2018-09-25T10:07:59.541Z,14.50
2018-09-25T10:10:33.324Z,14.90
2018-09-25T10:13:06.994Z,15.20
2018-09-25T10:15:40.843Z,14.80
2018-09-25T10:18:14.663Z,14.90
2018-09-25T10:20:48.414Z,14.40
2018-09-25T10:23:22.226Z,15.20
2018-09-25T10:25:56.938Z,16.00
2018-09-25T10:28:30.594Z,15.50
2018-09-25T10:31:04.236Z,15.50
2018-09-25T10:33:38.109Z,16.00
2018-09-25T10:36:11.869Z,17.50
2018-09-25T10:38:45.458Z,17.70
2018-09-25T10:41:19.281Z,18.20
2018-09-25T10:43:52.938Z,18.20
2018-09-25T10:46:27.813Z,18.80
2018-09-25T10:49:01.712Z,19.10
2018-09-25T10:51:35.548Z,18.20
2018-09-25T10:54:09.723Z,16.60
2018-09-25T10:56:43.589Z,16.40
2018-09-25T10:59:17.335Z,15.50
2018-09-25T11:01:51.238Z,15.30
2018-09-25T11:04:25.151Z,15.70
2018-09-25T11:06:58.809Z,15.40
2018-09-25T11:09:32.536Z,15.70
2018-09-25T11:12:06.295Z,15.80
2018-09-25T11:14:39.918Z,17.00
2018-09-25T11:17:13.633Z,18.50
2018-09-25T11:19:47.465Z,18.60
2018-09-25T11:22:21.142Z,18.20
2018-09-25T11:24:54.868Z,16.20
2018-09-25T11:27:28.678Z,16.10
2018-09-25T11:30:02.406Z,16.10
2018-09-25T11:32:36.297Z,17.10
2018-09-25T11:35:09.949Z,19.30
2018-09-25T11:37:43.805Z,18.20
2018-09-25T11:40:17.750Z,17.80
2018-09-25T11:42:51.461Z,18.80
2018-09-25T11:45:25.190Z,17.80
2018-09-25T11:47:59.011Z,17.30
2018-09-25T11:50:32.761Z,17.40
2018-09-25T11:53:06.443Z,15.70
2018-09-25T11:55:40.154Z,16.30
2018-09-25T11:58:14.085Z,17.30
2018-09-25T12:00:47.645Z,17.00
2018-09-25T12:03:21.493Z,16.00
2018-09-25T12:05:55.279Z,16.10
2018-09-25T12:08:29.347Z,16.30
2018-09-25T12:11:03.196Z,17.80
2018-09-25T12:13:36.966Z,17.80
2018-09-25T12:16:10.777Z,15.90
2018-09-25T12:18:44.438Z,14.90
2018-09-25T12:21:18.121Z,15.50
2018-09-25T12:23:51.868Z,16.20
2018-09-25T12:26:25.786Z,16.50
2018-09-25T12:28:59.608Z,15.40
2018-09-25T12:31:33.245Z,16.80
2018-09-25T12:34:06.980Z,16.90
2018-09-25T12:36:40.866Z,17.30
2018-09-25T12:39:14.753Z,17.00
2018-09-25T12:41:48.457Z,16.50
2018-09-25T12:44:22.223Z,17.70
2018-09-25T12:46:56.125Z,18.30
2018-09-25T12:49:30.223Z,16.30
2018-09-25T12:52:03.889Z,17.20
2018-09-25T12:54:37.617Z,18.60
2018-09-25T12:57:11.294Z,17.60
2018-09-25T12:59:45.054Z,16.40
2018-09-25T13:02:18.653Z,16.00
2018-09-25T13:04:52.347Z,16.50
2018-09-25T13:07:26.176Z,18.10
2018-09-25T13:09:59.906Z,17.10
2018-09-25T13:12:33.803Z,17.80
2018-09-25T13:15:07.609Z,17.90
2018-09-25T13:17:41.297Z,18.10
2018-09-25T13:20:15.230Z,17.20
2018-09-25T13:22:48.862Z,17.70
2018-09-25T13:25:22.638Z,17.30
2018-09-25T13:27:56.770Z,17.60
2018-09-25T13:30:30.564Z,17.50
2018-09-25T13:33:04.364Z,17.50
2018-09-25T13:35:38.122Z,16.00
2018-09-25T13:38:11.880Z,15.50
2018-09-25T13:40:45.559Z,15.20
2018-09-25T13:43:19.801Z,15.40
2018-09-25T13:45:53.529Z,15.10
2018-09-25T13:48:27.314Z,15.50
2018-09-25T13:51:01.109Z,15.90
2018-09-25T13:53:35.047Z,15.10
2018-09-25T13:56:08.953Z,15.20
2018-09-25T13:58:42.697Z,15.50
2018-09-25T14:01:16.352Z,16.70
2018-09-25T14:03:50.115Z,15.40
2018-09-25T14:06:23.910Z,15.00
2018-09-25T14:08:57.831Z,16.10
2018-09-25T14:11:31.564Z,16.30
2018-09-25T14:14:05.177Z,16.70
2018-09-25T14:16:39.038Z,17.20
2018-09-25T14:19:12.854Z,16.80
2018-09-25T14:21:46.534Z,17.10
2018-09-25T14:24:20.453Z,17.80
2018-09-25T14:26:54.357Z,17.20
2018-09-25T14:29:28.228Z,16.70
2018-09-25T14:32:01.990Z,16.70
2018-09-25T14:34:35.827Z,16.00
2018-09-25T14:37:09.482Z,16.20
2018-09-25T14:39:43.400Z,16.20
2018-09-25T14:42:17.181Z,16.50
2018-09-25T14:44:51.118Z,15.90
2018-09-25T14:47:25.010Z,15.30
2018-09-25T14:49:58.741Z,16.00
2018-09-25T14:52:32.483Z,17.60
2018-09-25T14:55:06.225Z,17.70
2018-09-25T14:57:39.857Z,17.40
2018-09-25T15:00:13.807Z,17.70
2018-09-25T15:02:47.344Z,16.80
2018-09-25T15:05:21.130Z,16.50
2018-09-25T15:07:54.954Z,16.70
2018-09-25T15:10:29.047Z,17.00
2018-09-25T15:13:02.798Z,16.30
2018-09-25T15:15:36.473Z,16.30
2018-09-25T15:18:10.333Z,16.20
2018-09-25T15:20:44.152Z,15.70
2018-09-25T15:23:17.860Z,15.30
2018-09-25T15:25:51.629Z,15.40
2018-09-25T15:28:25.583Z,16.00
2018-09-25T15:30:59.307Z,16.30
2018-09-25T15:33:32.967Z,16.00
2018-09-25T15:36:06.642Z,15.50
2018-09-25T15:38:40.308Z,15.20
2018-09-25T15:41:14.227Z,14.80
2018-09-25T15:43:48.039Z,15.20
2018-09-25T15:46:21.659Z,15.80
2018-09-25T15:48:55.367Z,15.70
2018-09-25T15:51:29.145Z,15.80
2018-09-25T15:54:02.876Z,15.70
2018-09-25T15:56:36.614Z,15.50
2018-09-25T15:59:10.332Z,15.20
2018-09-25T16:01:44.149Z,15.30
2018-09-25T16:04:18.030Z,15.00
2018-09-25T16:06:51.902Z,15.10
2018-09-25T16:09:25.578Z,15.10
2018-09-25T16:11:59.409Z,15.00
2018-09-25T16:14:33.214Z,15.10
2018-09-25T16:17:06.863Z,15.40
2018-09-25T16:19:40.702Z,15.00
2018-09-25T16:22:14.385Z,15.30
2018-09-25T16:24:48.234Z,14.90
2018-09-25T16:27:22.138Z,15.20
2018-09-25T16:29:55.736Z,15.10
2018-09-25T16:32:29.451Z,14.90
2018-09-25T16:35:03.110Z,14.90
2018-09-25T16:37:36.880Z,14.80
2018-09-25T16:40:10.587Z,14.90
2018-09-25T16:42:44.652Z,14.70
2018-09-25T16:45:18.530Z,14.50
2018-09-25T16:47:52.298Z,14.40
2018-09-25T16:50:25.904Z,14.20
2018-09-25T16:52:59.682Z,14.20
2018-09-25T16:55:33.255Z,14.10
2018-09-25T16:58:07.021Z,14.20
2018-09-25T17:00:40.815Z,14.00
2018-09-25T17:03:14.658Z,14.00
2018-09-25T17:05:48.616Z,13.70
2018-09-25T17:08:22.317Z,13.80
2018-09-25T17:10:55.985Z,13.90
2018-09-25T17:13:29.872Z,13.90
2018-09-25T17:16:03.707Z,13.70
2018-09-25T17:18:37.709Z,13.70
2018-09-25T17:21:11.683Z,13.80
2018-09-25T17:23:45.297Z,13.70
2018-09-25T17:26:19.038Z,13.60
2018-09-25T17:28:52.795Z,13.50
2018-09-25T17:31:26.653Z,13.40
2018-09-25T17:34:00.508Z,13.60
2018-09-25T17:36:34.462Z,13.40
2018-09-25T17:39:08.273Z,13.30
2018-09-25T17:41:41.953Z,13.40
2018-09-25T17:44:15.748Z,13.20
2018-09-25T17:46:49.573Z,13.10
2018-09-25T17:49:23.317Z,13.00
2018-09-25T17:51:57.087Z,13.00
2018-09-25T17:54:30.717Z,12.90
2018-09-25T17:57:04.359Z,12.90
2018-09-25T17:59:38.560Z,12.70
2018-09-25T18:02:12.384Z,12.60
2018-09-25T18:04:46.063Z,12.70
2018-09-25T18:07:19.817Z,12.50
2018-09-25T18:09:53.497Z,12.50
2018-09-25T18:12:27.298Z,12.50
2018-09-25T18:15:01.191Z,12.40
2018-09-25T18:17:34.869Z,12.40
2018-09-25T18:20:09.054Z,12.30
2018-09-25T18:22:42.844Z,12.20
2018-09-25T18:25:16.610Z,12.30
2018-09-25T18:27:50.424Z,12.20
2018-09-25T18:30:24.235Z,12.10
2018-09-25T18:32:57.978Z,12.10
2018-09-25T18:35:31.778Z,12.10
2018-09-25T18:38:05.435Z,12.10
2018-09-25T18:40:39.087Z,12.00
2018-09-25T18:43:12.892Z,12.00
2018-09-25T18:45:46.721Z,11.90
2018-09-25T18:48:20.606Z,11.80
2018-09-25T18:50:54.286Z,11.90
2018-09-25T18:53:27.833Z,11.80
2018-09-25T18:56:01.831Z,11.80
2018-09-25T18:58:35.601Z,11.70
2018-09-25T19:01:09.611Z,11.80
2018-09-25T19:03:43.736Z,11.80
2018-09-25T19:06:17.395Z,11.80
2018-09-25T19:08:51.038Z,11.60
2018-09-25T19:11:24.975Z,11.70
2018-09-25T19:13:58.811Z,11.70
2018-09-25T19:16:32.690Z,11.60
2018-09-25T19:19:06.402Z,11.60
2018-09-25T19:21:40.211Z,11.50
2018-09-25T19:24:13.700Z,11.50
2018-09-25T19:26:47.394Z,11.40
2018-09-25T19:29:21.321Z,11.40
2018-09-25T19:31:55.082Z,11.40
2018-09-25T19:34:28.875Z,11.30
2018-09-25T19:37:02.684Z,11.20
2018-09-25T19:39:36.611Z,11.20
2018-09-25T19:42:10.514Z,11.30
2018-09-25T19:44:44.382Z,11.00
2018-09-25T19:47:18.181Z,11.10
2018-09-25T19:49:51.930Z,11.20
2018-09-25T19:52:25.678Z,11.20
2018-09-25T19:54:59.543Z,11.20
2018-09-25T19:57:33.391Z,11.20
2018-09-25T20:00:07.291Z,11.10
2018-09-25T20:02:41.098Z,11.10
2018-09-25T20:05:14.845Z,11.10
2018-09-25T20:07:48.454Z,10.90
2018-09-25T20:10:22.311Z,10.70
2018-09-25T20:12:56.065Z,10.60
2018-09-25T20:15:36.809Z,10.60
2018-09-25T20:18:10.611Z,10.50
2018-09-25T20:20:44.525Z,10.50
2018-09-25T20:23:18.318Z,10.50
2018-09-25T20:25:52.016Z,10.40
2018-09-25T20:28:25.822Z,10.30
2018-09-25T20:30:59.529Z,10.30
2018-09-25T20:33:33.446Z,10.30
2018-09-25T20:36:07.158Z,10.20
2018-09-25T20:38:41.049Z,10.30
2018-09-25T20:41:14.889Z,10.20
2018-09-25T20:43:48.588Z,10.40
2018-09-25T20:46:22.330Z,10.30
2018-09-25T20:48:56.115Z,10.20
2018-09-25T20:51:29.939Z,10.20
2018-09-25T20:54:03.813Z,10.10
2018-09-25T20:56:37.755Z,10.10
2018-09-25T20:59:11.578Z,10.00
2018-09-25T21:01:45.357Z,9.90
2018-09-25T21:04:19.179Z,9.70
2018-09-25T21:06:53.563Z,9.50
2018-09-25T21:09:27.400Z,9.50
2018-09-25T21:12:00.984Z,9.50
2018-09-25T21:14:34.631Z,9.40
2018-09-25T21:17:08.278Z,9.60
2018-09-25T21:19:42.016Z,9.70
2018-09-25T21:22:15.844Z,9.70
2018-09-25T21:24:49.611Z,9.50
2018-09-25T21:27:23.458Z,9.40
2018-09-25T21:29:56.938Z,9.50
2018-09-25T21:32:30.743Z,9.50
2018-09-25T21:35:04.509Z,9.50
2018-09-25T21:37:38.653Z,9.40
2018-09-25T21:40:12.582Z,9.50
2018-09-25T21:42:46.317Z,9.50
2018-09-25T21:45:20.077Z,9.30
2018-09-25T21:47:53.973Z,9.10
2018-09-25T21:50:27.814Z,8.90
2018-09-25T21:53:01.550Z,9.00
2018-09-25T21:55:35.229Z,9.10
2018-09-25T21:58:09.051Z,9.10
2018-09-25T22:00:42.765Z,9.20
2018-09-25T22:03:16.758Z,9.10
2018-09-25T22:05:50.733Z,8.80
2018-09-25T22:08:24.509Z,8.60
2018-09-25T22:10:58.286Z,8.70
2018-09-25T22:13:32.117Z,8.60
2018-09-25T22:16:05.853Z,8.60
2018-09-25T22:18:39.834Z,8.60
2018-09-25T22:21:13.435Z,8.70
2018-09-25T22:23:47.242Z,8.50
2018-09-25T22:26:21.031Z,8.50
2018-09-25T22:28:54.874Z,8.40
2018-09-25T22:31:28.501Z,8.30
2018-09-25T22:34:02.165Z,8.30
2018-09-25T22:36:35.848Z,8.20
2018-09-25T22:39:12.661Z,8.40
2018-09-25T22:41:46.326Z,8.30
2018-09-25T22:44:20.322Z,8.40
2018-09-25T22:46:54.110Z,8.20
2018-09-25T22:49:28.093Z,8.10
2018-09-25T22:52:01.777Z,8.20
2018-09-25T22:54:35.512Z,8.10
2018-09-25T22:57:09.191Z,8.10
2018-09-25T22:59:42.921Z,8.00
2018-09-25T23:02:16.577Z,8.10
2018-09-25T23:04:50.363Z,8.10
2018-09-25T23:07:24.061Z,8.10
2018-09-25T23:09:57.736Z,8.10
2018-09-25T23:12:31.405Z,8.10
2018-09-25T23:15:05.169Z,8.20
2018-09-25T23:17:38.873Z,8.20
2018-09-25T23:20:12.774Z,7.90
2018-09-25T23:22:46.505Z,7.90
2018-09-25T23:25:20.277Z,8.00
2018-09-25T23:27:53.953Z,8.00
2018-09-25T23:30:28.101Z,7.80
2018-09-25T23:33:01.856Z,7.70
2018-09-25T23:35:35.599Z,7.70
2018-09-25T23:38:09.333Z,7.80
2018-09-25T23:40:43.166Z,7.70
2018-09-25T23:44:14.655Z,7.70
2018-09-25T23:47:20.899Z,7.80
2018-09-25T23:49:57.611Z,7.80
2018-09-25T23:52:32.209Z,7.60
2018-09-25T23:55:07.801Z,7.80
2018-09-25T23:57:41.754Z,7.80
